Clovis ASC

Feb. 28, 2020, noon

  • imperial
Air Temperature RH Dewpoint Wind Chill Heat Index Wind Speed Wind Direction Precipitation Solar Radiation Soil Temperature
Date Time Max Mean Mean Total Total
US/Mountain F % F F F MPH MPH MPH deg. deg. in. MJ/m^2 F
2020-02-27 12:00 56.91 14.39 8.76 56.91 56.91 9.04 17.07 9.35 328.8 1.2 0.0 0.231 41.68
2020-02-27 12:05 56.73 14.53 8.83 56.73 56.73 6.35 12.06 8.55 315.1 10.3 0.0 0.231 41.92
2020-02-27 12:10 56.86 14.29 8.56 56.86 56.86 10.09 15.64 8.25 14.5 354.7 0.0 0.231 42.12
2020-02-27 12:15 56.48 16.23 11.1 56.48 56.48 6.71 12.59 8.21 1.2 358.8 0.0 0.23 42.35
2020-02-27 12:20 56.61 15.96 10.82 56.61 56.61 8.12 9.91 6.67 324.6 0.5 0.0 0.23 42.57
2020-02-27 12:25 57.27 14.53 9.26 57.27 57.27 16.71 16.71 8.99 316.6 350.5 0.0 0.23 42.78
2020-02-27 12:30 56.97 14.63 9.17 56.97 56.97 9.22 17.25 11.68 331.1 326.9 0.0 0.23 43.02
2020-02-27 12:35 56.48 14.87 9.14 56.48 56.48 14.2 17.43 10.89 318.2 323.1 0.0 0.229 43.21
2020-02-27 12:40 57.88 14.73 10.06 57.88 57.88 15.1 16.89 10.72 330.6 352.2 0.0 0.228 43.45
2020-02-27 12:45 57.7 13.92 8.65 57.7 57.7 11.88 13.85 9.82 341.8 354.3 0.0 0.227 43.66
2020-02-27 12:50 57.52 14.73 9.77 57.52 57.52 9.22 21.72 12.1 317.1 338.0 0.0 0.226 43.9
2020-02-27 12:55 57.27 14.77 9.63 57.27 57.27 9.22 16.53 12.39 326.8 331.4 0.0 0.224 44.11
2020-02-27 13:00 57.15 13.99 8.32 57.15 57.15 4.74 11.52 8.05 45.8 351.1 0.0 0.223 44.33
2020-02-27 13:05 57.4 13.71 8.07 57.4 57.4 9.22 15.99 9.13 300.4 330.3 0.0 0.222 44.55
2020-02-27 13:10 57.96 13.68 8.47 57.96 57.96 10.63 12.59 7.43 5.7 346.5 0.0 0.22 44.76
2020-02-27 13:15 57.45 15.48 10.82 57.45 57.45 11.16 15.99 9.31 311.5 18.2 0.0 0.218 44.96
2020-02-27 13:20 58.32 13.71 8.8 58.32 58.32 12.42 17.07 9.95 324.4 329.9 0.0 0.216 45.18
2020-02-27 13:25 57.76 14.66 9.85 57.76 57.76 10.8 14.2 6.87 340.0 340.7 0.0 0.214 45.39
2020-02-27 13:30 58.24 14.8 10.45 58.24 58.24 10.45 10.45 7.83 337.0 352.4 0.0 0.213 45.59
2020-02-27 13:35 57.83 13.88 8.69 57.83 57.83 7.96 14.38 9.82 316.4 3.2 0.0 0.21 45.77
2020-02-27 13:40 58.12 13.95 9.03 58.12 58.12 4.74 15.64 9.15 40.6 315.4 0.0 0.207 45.99
2020-02-27 13:45 58.19 12.86 7.28 58.19 58.19 14.2 19.57 12.55 338.4 329.5 0.0 0.205 46.18
2020-02-27 13:50 57.45 13.31 7.46 57.45 57.45 4.38 15.1 8.57 7.7 348.8 0.0 0.202 46.36
2020-02-27 13:55 58.44 11.07 4.19 58.44 58.44 11.52 14.56 8.52 320.6 324.3 0.0 0.2 46.58
2020-02-27 14:00 57.94 13.14 7.56 57.94 57.94 8.48 14.74 10.38 291.8 310.4 0.0 0.197 46.78
2020-02-27 14:05 58.5 11.27 4.63 58.5 58.5 21.01 22.8 15.44 308.4 318.5 0.0 0.194 46.96
2020-02-27 14:10 58.37 11.74 5.42 58.37 58.37 13.85 17.96 12.95 312.7 309.0 0.0 0.191 47.16
2020-02-27 14:15 57.88 13.1 7.45 57.88 57.88 14.74 17.61 13.87 313.3 311.1 0.0 0.188 47.3
2020-02-27 14:20 58.55 12.73 7.34 58.55 58.55 11.16 15.1 11.77 293.2 304.7 0.0 0.184 47.5
2020-02-27 14:25 58.24 12.66 6.98 58.24 58.24 14.56 15.1 11.23 288.8 293.0 0.0 0.181 47.66
2020-02-27 14:30 58.37 12.39 6.6 58.37 58.37 9.91 13.85 9.33 311.2 291.5 0.0 0.177 47.84
2020-02-27 14:35 59.23 12.39 7.28 59.23 59.23 18.5 19.39 13.53 323.1 301.8 0.0 0.174 47.98
2020-02-27 14:40 59.9 13.17 9.17 59.9 59.9 19.57 19.57 14.2 331.8 316.3 0.0 0.17 48.11
2020-02-27 14:45 57.65 12.9 6.92 57.65 57.65 7.78 21.01 12.44 316.2 310.8 0.0 0.166 48.25
2020-02-27 14:50 58.75 12.19 6.54 58.75 58.75 12.95 17.78 11.19 326.5 317.3 0.0 0.162 48.4
2020-02-27 14:55 58.57 12.26 6.53 58.57 58.57 9.57 13.85 10.8 317.6 340.9 0.0 0.158 48.52
2020-02-27 15:00 58.5 13.95 9.33 58.5 58.5 6.0 11.88 6.96 2.6 339.4 0.0 0.139 48.65
2020-02-27 15:05 58.57 13.0 7.82 58.57 58.57 7.25 18.5 11.7 322.3 334.2 0.0 0.15 48.78
2020-02-27 15:10 58.68 14.09 9.7 58.68 58.68 10.8 13.13 8.7 310.7 330.3 0.0 0.145 48.87
2020-02-27 15:15 58.8 13.37 8.63 58.8 58.8 5.64 15.28 9.51 330.6 324.0 0.0 0.141 48.99
2020-02-27 15:20 58.8 13.71 9.19 58.8 58.8 6.35 13.31 8.81 318.5 344.4 0.0 0.137 49.1
2020-02-27 15:25 59.29 13.58 9.36 59.29 59.29 9.22 14.92 10.25 308.5 330.9 0.0 0.132 49.21
2020-02-27 15:30 58.57 13.24 8.23 58.57 58.57 10.63 14.92 11.36 306.0 318.4 0.0 0.128 49.3
2020-02-27 15:35 58.93 12.66 7.52 58.93 58.93 13.85 15.82 11.41 298.5 302.5 0.0 0.123 49.39
2020-02-27 15:40 58.26 14.26 9.64 58.26 58.26 10.98 14.38 11.12 326.0 309.3 0.0 0.118 49.48
2020-02-27 15:45 58.5 13.44 8.5 58.5 58.5 11.7 12.77 9.98 329.7 320.8 0.0 0.113 49.57
2020-02-27 15:50 58.37 12.93 7.54 58.37 58.37 7.43 15.46 12.42 332.2 325.6 0.0 0.109 49.64
2020-02-27 15:55 58.39 13.0 7.68 58.39 58.39 9.57 14.56 10.25 16.2 327.3 0.0 0.104 49.71
2020-02-27 16:00 58.57 12.83 7.53 58.57 58.57 8.86 12.95 7.58 290.1 332.2 0.0 0.099 49.77
2020-02-27 16:05 58.8 12.29 6.76 58.8 58.8 12.24 12.77 7.99 338.2 329.5 0.0 0.094 49.82
2020-02-27 16:10 58.62 13.61 8.88 58.62 58.62 11.52 12.42 10.76 327.5 324.2 0.0 0.089 49.86
2020-02-27 16:15 58.32 13.31 8.14 58.32 58.32 11.16 11.16 8.34 344.7 334.0 0.0 0.084 49.91
2020-02-27 16:20 58.08 12.49 6.55 58.08 58.08 3.49 12.24 8.59 341.6 343.8 0.0 0.064 49.93
2020-02-27 16:25 58.62 13.38 8.5 58.62 58.62 7.43 8.3 6.38 327.1 353.7 0.0 0.074 49.98
2020-02-27 16:30 58.32 13.65 8.7 58.32 58.32 6.17 8.3 6.2 334.6 336.1 0.0 0.069 50.0
2020-02-27 16:35 57.96 14.39 9.59 57.96 57.96 7.78 13.13 8.08 324.3 331.7 0.0 0.064 50.0
2020-02-27 16:40 57.96 12.83 7.04 57.96 57.96 6.35 10.8 7.54 346.4 327.3 0.0 0.059 50.02
2020-02-27 16:45 58.03 13.55 8.31 58.03 58.03 10.27 10.27 5.66 336.7 331.0 0.0 0.054 50.04
2020-02-27 16:50 57.9 13.38 7.93 57.9 57.9 5.64 9.73 7.43 337.7 345.5 0.0 0.049 50.05
2020-02-27 16:55 57.65 13.58 8.06 57.65 57.65 6.17 6.89 5.19 10.7 347.8 0.0 0.044 50.05
2020-02-27 17:00 57.42 13.92 8.42 57.42 57.42 4.56 5.28 4.21 339.9 350.1 0.0 0.04 50.07
2020-02-27 17:05 57.22 13.07 6.87 57.22 57.22 4.38 5.46 3.96 316.1 349.7 0.0 0.034 50.05
2020-02-27 17:10 57.29 13.72 8.0 57.29 57.29 2.77 5.64 2.89 0.0 360.0 0.0 0.029 50.05
2020-02-27 17:15 56.91 13.99 8.13 56.91 56.91 2.42 4.03 2.64 3.9 1.5 0.0 0.023 50.04
2020-02-27 17:20 56.43 14.67 8.79 56.43 56.43 2.95 3.85 2.62 319.6 349.3 0.0 0.018 50.02
2020-02-27 17:25 56.01 14.46 8.14 56.01 56.01 1.16 3.67 2.04 9.7 3.9 0.0 0.013 50.0
2020-02-27 17:30 55.76 14.73 8.35 55.76 55.76 0.0 1.88 0.63 8.4 4.5 0.0 0.009 49.96
2020-02-27 17:35 55.09 14.97 8.17 55.09 55.09 1.52 1.7 0.69 29.3 26.7 0.0 0.006 49.93
2020-02-27 17:40 53.92 15.45 7.92 53.92 53.92 2.24 3.31 2.21 45.1 42.7 0.0 0.004 49.89
2020-02-27 17:45 53.19 16.19 8.36 53.19 53.19 2.59 3.67 2.68 41.5 43.9 0.0 0.002 49.84
2020-02-27 17:50 52.21 16.84 8.45 52.21 52.21 4.56 4.56 3.62 50.6 48.7 0.0 0.001 49.77
2020-02-27 17:55 50.81 17.79 8.51 50.81 50.81 5.1 5.1 4.56 56.1 58.5 0.0 0.001 49.71
2020-02-27 18:00 50.07 18.57 8.86 50.07 50.07 4.21 5.1 4.43 55.5 55.3 0.0 0.0 49.64
2020-02-27 18:05 49.95 18.23 8.34 48.4 49.95 4.56 5.1 4.7 61.4 59.2 0.0 0.0 49.57
2020-02-27 18:10 49.1 19.15 8.74 47.79 49.1 4.03 4.56 4.25 57.1 54.5 0.0 0.0 49.48
2020-02-27 18:15 48.36 19.25 8.24 46.55 48.36 4.56 4.74 4.54 64.7 59.5 0.0 0.0 49.41
2020-02-27 18:20 46.6 20.95 8.65 44.13 46.6 5.1 5.1 4.83 64.3 61.3 0.0 0.0 49.32
2020-02-27 18:25 45.19 22.37 8.92 41.92 45.19 6.0 6.0 5.5 67.0 66.0 0.0 0.0 49.21
2020-02-27 18:30 44.58 22.81 8.84 40.69 44.58 6.89 7.25 6.4 63.8 62.5 0.0 0.0 49.12
2020-02-27 18:35 42.57 27.5 11.3 38.57 42.57 6.35 7.61 6.78 79.0 69.1 0.0 0.0 49.03
2020-02-27 18:40 43.0 28.72 12.66 39.53 43.0 5.64 7.07 6.13 79.0 76.6 0.0 0.0 48.94
2020-02-27 18:45 41.77 30.59 13.02 38.08 41.77 5.64 5.64 5.23 72.0 72.6 0.0 0.0 48.83
2020-02-27 18:50 40.32 32.49 13.11 36.74 40.32 5.1 5.46 4.9 66.6 70.8 0.0 0.0 48.72
2020-02-27 18:55 39.52 33.58 13.16 36.09 39.52 4.74 5.28 4.85 72.5 69.7 0.0 0.0 48.61
2020-02-27 19:00 38.91 35.01 13.56 35.53 38.91 4.56 5.46 5.08 77.5 71.4 0.0 0.0 48.51
2020-02-27 19:05 37.87 36.94 13.86 35.56 37.87 3.31 4.92 4.36 77.1 74.5 0.0 0.0 48.4
2020-02-27 19:10 37.56 38.23 14.37 37.56 37.56 2.95 4.21 3.4 87.0 86.6 0.0 0.0 48.29
2020-02-27 19:15 37.02 38.85 14.25 34.39 37.02 3.49 4.03 3.47 81.7 78.5 0.0 0.0 48.18
2020-02-27 19:20 36.54 39.76 14.34 36.54 36.54 2.95 4.38 3.56 83.7 84.7 0.0 0.0 48.07
2020-02-27 19:25 35.85 40.99 14.42 33.05 35.85 3.49 3.49 2.93 82.7 85.1 0.0 0.0 47.95
2020-02-27 19:30 35.74 40.75 14.19 35.74 35.74 2.59 3.49 3.04 85.2 89.6 0.0 0.0 47.86
2020-02-27 19:35 35.92 40.52 14.22 35.92 35.92 2.77 2.95 2.59 78.7 80.5 0.0 0.0 47.71
2020-02-27 19:40 36.41 39.9 14.31 33.3 36.41 3.85 3.85 3.38 72.9 75.9 0.0 0.0 47.62
2020-02-27 19:45 36.36 38.99 13.73 32.71 36.36 4.38 4.56 4.14 68.2 69.3 0.0 0.0 47.52
2020-02-27 19:50 36.43 39.43 14.05 33.51 36.43 3.67 4.56 3.87 73.8 72.7 0.0 0.0 47.41
2020-02-27 19:55 35.69 41.03 14.29 33.29 35.69 3.13 4.03 3.62 81.2 78.6 0.0 0.0 47.3
2020-02-27 20:00 35.15 42.22 14.46 32.68 35.15 3.13 4.56 3.69 85.2 87.2 0.0 0.0 47.17
2020-02-27 20:05 34.95 41.85 14.08 32.02 34.95 3.49 3.85 3.33 75.3 80.2 0.0 0.0 47.07
2020-02-27 20:10 35.15 42.36 14.53 31.14 35.15 4.56 4.56 3.91 72.0 75.7 0.0 0.0 46.94
2020-02-27 20:15 35.08 41.41 13.95 31.22 35.08 4.38 4.92 4.59 75.0 71.7 0.0 0.0 46.83
2020-02-27 20:20 35.51 41.27 14.26 32.08 35.51 4.03 4.74 4.41 73.2 72.3 0.0 0.0 46.72
2020-02-27 20:25 35.08 42.73 14.67 31.4 35.08 4.21 4.92 4.14 90.7 79.0 0.0 0.0 46.63
2020-02-27 20:30 34.84 42.43 14.29 31.31 34.84 4.03 4.38 4.07 91.5 93.4 0.0 0.0 46.53
2020-02-27 20:35 35.08 41.92 14.23 32.38 35.08 3.31 4.21 3.69 104.8 99.9 0.0 0.0 46.42
2020-02-27 20:40 35.08 41.75 14.14 35.08 35.08 2.95 3.67 3.13 110.4 100.9 0.0 0.0 46.31
2020-02-27 20:45 35.69 41.1 14.33 33.29 35.69 3.13 3.67 3.06 90.6 96.5 0.0 0.0 46.2
2020-02-27 20:50 35.87 40.69 14.27 35.87 35.87 2.42 3.31 2.55 84.1 85.6 0.0 0.0 46.09
2020-02-27 20:55 35.82 40.93 14.35 35.82 35.82 2.59 2.77 2.48 80.3 83.2 0.0 0.0 45.99
2020-02-27 21:00 36.05 40.01 14.04 33.7 36.05 3.13 3.31 3.11 58.5 70.5 0.0 0.0 45.88
2020-02-27 21:05 36.61 38.32 13.56 33.91 36.61 3.49 3.85 3.4 60.4 65.7 0.0 0.0 45.79
2020-02-27 21:10 36.91 37.74 13.49 33.88 36.91 3.85 3.85 3.6 63.7 65.9 0.0 0.0 45.68
2020-02-27 21:15 36.79 37.7 13.35 33.73 36.79 3.85 4.21 3.91 70.4 66.5 0.0 0.0 45.57
2020-02-27 21:20 36.55 37.67 13.13 36.55 36.55 2.59 4.03 3.13 74.7 76.0 0.0 0.0 45.46
2020-02-27 21:25 36.48 38.21 13.38 36.48 36.48 2.24 2.77 2.28 102.4 93.8 0.0 0.0 45.39
2020-02-27 21:30 36.43 38.25 13.36 33.14 36.43 4.03 4.03 2.73 123.7 114.0 0.0 0.0 45.28
2020-02-27 21:35 36.73 38.62 13.85 34.26 36.73 3.31 3.85 3.42 106.7 125.3 0.0 0.0 45.19
2020-02-27 21:40 36.79 38.25 13.68 33.73 36.79 3.85 4.21 3.53 96.1 111.9 0.0 0.0 45.12
2020-02-27 21:45 36.36 38.55 13.47 32.38 36.36 4.74 4.74 3.6 70.0 79.5 0.0 0.0 45.01
2020-02-27 21:50 35.64 39.84 13.57 32.22 35.64 4.03 4.56 3.91 79.6 75.3 0.0 0.0 44.91
2020-02-27 21:55 36.0 39.57 13.74 33.01 36.0 3.67 4.38 3.76 78.5 75.6 0.0 0.0 44.82
2020-02-27 22:00 35.69 39.13 13.21 35.69 35.69 2.95 3.85 3.13 83.8 80.5 0.0 0.0 44.73
2020-02-27 22:05 35.69 39.16 13.23 35.69 35.69 2.59 3.31 2.98 103.7 95.8 0.0 0.0 44.64
2020-02-27 22:10 35.87 39.98 13.86 35.87 35.87 2.59 3.13 2.8 96.4 108.1 0.0 0.0 44.55
2020-02-27 22:15 36.18 39.06 13.61 36.18 36.18 2.24 2.59 2.28 80.0 90.5 0.0 0.0 44.47
2020-02-27 22:20 36.3 38.96 13.66 33.99 36.3 3.13 3.13 2.73 75.6 79.0 0.0 0.0 44.38
2020-02-27 22:25 35.69 39.91 13.66 35.69 35.69 2.06 3.49 2.59 83.1 84.0 0.0 0.0 44.28
2020-02-27 22:30 35.82 40.08 13.87 35.82 35.82 2.06 2.77 2.21 100.2 95.2 0.0 0.0 44.2
2020-02-27 22:35 35.87 39.91 13.82 35.87 35.87 1.88 2.24 1.83 124.0 115.4 0.0 0.0 44.13
2020-02-27 22:40 36.12 39.44 13.78 36.12 36.12 2.59 2.59 1.99 89.4 110.9 0.0 0.0 44.04
2020-02-27 22:45 36.55 38.96 13.89 33.85 36.55 3.49 3.49 2.64 72.3 81.6 0.0 0.0 43.97
2020-02-27 22:50 36.3 38.72 13.52 33.77 36.3 3.31 3.67 3.47 73.4 74.0 0.0 0.0 43.86
2020-02-27 22:55 36.12 38.79 13.4 36.12 36.12 2.95 3.49 2.93 81.5 81.8 0.0 0.0 43.79
2020-02-27 23:00 35.94 38.96 13.34 35.94 35.94 2.95 3.49 3.04 94.1 88.8 0.0 0.0 43.68
2020-02-27 23:05 35.69 39.27 13.29 35.69 35.69 2.59 3.31 2.64 71.2 78.5 0.0 0.0 43.61
2020-02-27 23:10 35.56 39.67 13.41 35.56 35.56 2.77 2.95 2.82 78.3 72.5 0.0 0.0 43.56
2020-02-27 23:15 35.46 40.18 13.6 35.46 35.46 1.88 2.77 2.15 75.0 79.3 0.0 0.0 43.48
2020-02-27 23:20 35.46 40.56 13.82 35.46 35.46 1.52 1.88 1.61 75.3 84.7 0.0 0.0 43.38
2020-02-27 23:25 35.64 40.42 13.9 35.64 35.64 2.42 2.42 2.08 67.1 70.3 0.0 0.0 43.3
2020-02-27 23:30 35.56 40.46 13.86 32.72 35.56 3.49 3.49 2.82 66.8 64.9 0.0 0.0 43.23
2020-02-27 23:35 35.26 41.51 14.17 32.37 35.26 3.49 3.49 3.24 62.5 69.0 0.0 0.0 43.14
2020-02-27 23:40 35.15 42.12 14.4 31.85 35.15 3.85 3.85 3.33 72.9 71.3 0.0 0.0 43.07
2020-02-27 23:45 34.05 43.0 13.88 30.03 34.05 4.38 4.74 3.89 70.5 66.9 0.0 0.0 43.0
2020-02-27 23:50 34.05 42.93 13.84 29.53 34.05 4.92 5.1 4.74 65.8 67.5 0.0 0.0 42.93
2020-02-27 23:55 33.98 43.0 13.81 29.44 33.98 4.92 5.64 4.83 61.8 65.2 0.0 0.0 42.85
2020-02-28 00:00 33.98 43.48 14.07 27.25 33.98 7.96 7.96 6.42 51.5 60.0 0.0 0.0 42.76
2020-02-28 00:05 31.1 48.57 13.95 24.33 31.1 7.07 8.12 7.47 38.1 47.8 0.0 0.0 42.67
2020-02-28 00:10 32.22 44.94 13.21 25.0 32.22 8.12 8.48 7.47 49.2 43.9 0.0 0.0 42.6
2020-02-28 00:15 32.45 45.01 13.46 26.21 32.45 6.71 8.68 6.93 58.7 51.2 0.0 0.0 42.53
2020-02-28 00:20 32.32 45.45 13.56 26.88 32.32 5.64 7.25 6.38 40.8 49.7 0.0 0.0 42.48
2020-02-28 00:25 31.35 47.15 13.51 25.72 31.35 5.64 6.35 5.79 67.6 56.1 0.0 0.0 42.4
2020-02-28 00:30 29.39 50.95 13.46 24.41 29.39 4.56 5.46 4.9 74.5 66.8 0.0 0.0 42.33
2020-02-28 00:35 28.6 54.38 14.21 23.12 28.6 4.92 4.92 4.38 77.7 78.3 0.0 0.0 42.26
2020-02-28 00:40 27.63 58.46 14.95 22.35 27.63 4.56 5.1 4.7 81.7 80.8 0.0 0.0 42.19
2020-02-28 00:45 27.93 58.76 15.35 21.06 27.93 6.35 6.71 5.66 89.3 88.4 0.0 0.0 42.12
2020-02-28 00:50 28.72 57.13 15.45 22.45 28.72 5.82 7.25 6.44 91.3 96.7 0.0 0.0 42.06
2020-02-28 00:55 29.39 55.71 15.5 22.95 29.39 6.17 6.35 5.68 110.7 97.9 0.0 0.0 42.01
2020-02-28 01:00 29.77 55.06 15.58 23.84 29.77 5.64 6.71 5.68 88.7 95.3 0.0 0.0 41.95
2020-02-28 01:05 29.64 56.96 16.25 25.72 29.64 3.67 6.17 4.47 91.0 84.7 0.0 0.0 41.88
2020-02-28 01:10 29.21 57.3 15.98 24.02 29.21 4.74 5.82 4.97 93.0 91.6 0.0 0.0 41.81
2020-02-28 01:15 29.21 55.67 15.32 23.34 29.21 5.46 5.64 4.88 93.1 95.6 0.0 0.0 41.76
2020-02-28 01:20 29.08 57.78 16.05 23.87 29.08 4.74 5.64 4.43 66.3 83.1 0.0 0.0 41.7
2020-02-28 01:25 28.29 58.42 15.56 23.13 28.29 4.56 5.46 4.92 79.2 73.2 0.0 0.0 41.65
2020-02-28 01:30 27.99 58.8 15.42 21.42 27.99 6.0 7.78 6.22 78.6 74.3 0.0 0.0 41.58
2020-02-28 01:35 29.08 55.98 15.32 23.03 29.08 5.64 7.43 5.86 74.8 74.8 0.0 0.0 41.5
2020-02-28 01:40 29.21 55.26 15.15 22.73 29.21 6.17 6.71 6.15 52.5 61.4 0.0 0.0 41.43
2020-02-28 01:45 29.59 52.99 14.54 23.63 29.59 5.64 7.25 6.13 61.2 50.1 0.0 0.0 41.36
2020-02-28 01:50 28.29 56.56 14.82 22.09 28.29 5.64 6.17 5.55 68.7 67.3 0.0 0.0 41.31
2020-02-28 01:55 27.5 59.31 15.16 22.21 27.5 4.56 5.82 5.01 80.5 75.1 0.0 0.0 41.25
2020-02-28 02:00 27.07 60.46 15.19 20.98 27.07 5.28 5.28 4.59 65.3 73.3 0.0 0.0 41.2
2020-02-28 02:05 27.86 56.45 14.37 19.46 27.86 8.48 8.48 6.49 43.9 51.7 0.0 0.0 41.13
2020-02-28 02:10 28.29 56.01 14.59 21.79 28.29 6.0 7.78 6.6 57.8 54.8 0.0 0.0 41.07
2020-02-28 02:15 28.06 57.47 14.96 22.49 28.06 4.92 6.0 4.92 68.5 70.7 0.0 0.0 41.02
2020-02-28 02:20 27.01 58.05 14.21 19.96 27.01 6.35 6.35 5.39 52.7 61.4 0.0 0.0 40.95
2020-02-28 02:25 28.67 54.38 14.27 22.09 28.67 6.17 7.78 6.93 59.2 48.0 0.0 0.0 40.87
2020-02-28 02:30 28.24 56.25 14.64 21.72 28.24 6.0 7.43 6.71 62.9 57.5 0.0 0.0 40.8
2020-02-28 02:35 27.45 57.88 14.55 20.48 27.45 6.35 6.71 6.11 62.5 63.9 0.0 0.0 40.77
2020-02-28 02:40 27.27 57.61 14.27 20.88 27.27 5.64 6.71 6.17 61.2 61.8 0.0 0.0 40.71
2020-02-28 02:45 27.07 57.98 14.23 20.98 27.07 5.28 6.35 5.79 66.9 60.6 0.0 0.0 40.64
2020-02-28 02:50 26.15 60.57 14.37 20.07 26.15 5.1 5.46 5.12 74.0 69.1 0.0 0.0 40.6
2020-02-28 02:55 26.28 61.69 14.91 20.04 26.28 5.28 5.82 5.3 77.1 75.8 0.0 0.0 40.53
2020-02-28 03:00 27.01 60.2 15.04 21.09 27.01 5.1 5.28 4.7 91.0 83.1 0.0 0.0 40.46
2020-02-28 03:05 27.45 58.84 14.93 20.06 27.45 6.89 6.89 5.5 99.4 97.0 0.0 0.0 40.41
2020-02-28 03:10 27.81 57.55 14.76 20.77 27.81 6.53 6.71 5.46 119.1 107.9 0.0 0.0 40.35
2020-02-28 03:15 28.36 57.01 15.07 22.02 28.36 5.82 7.07 5.75 113.5 116.5 0.0 0.0 40.3
2020-02-28 03:20 29.1 55.1 14.98 20.64 29.1 9.04 9.22 7.87 129.5 127.4 0.0 0.0 40.24
2020-02-28 03:25 30.51 52.73 15.28 22.58 30.51 8.68 9.57 8.59 120.6 123.0 0.0 0.0 40.19
2020-02-28 03:30 30.87 53.34 15.88 23.93 30.87 7.25 8.48 7.34 104.6 119.4 0.0 0.0 40.12
2020-02-28 03:35 29.64 55.95 15.84 22.97 29.64 6.53 7.43 5.97 95.8 104.5 0.0 0.0 40.06
2020-02-28 03:40 28.9 57.71 15.86 23.31 28.9 5.1 6.17 5.3 115.4 100.5 0.0 0.0 40.01
2020-02-28 03:45 28.85 58.29 16.03 23.97 28.85 4.38 5.82 4.9 102.8 99.6 0.0 0.0 39.94
2020-02-28 03:50 28.29 59.07 15.82 23.32 28.29 4.38 5.1 4.14 96.5 107.4 0.0 0.0 39.9
2020-02-28 03:55 27.93 59.92 15.8 22.71 27.93 4.56 5.1 4.25 114.8 114.6 0.0 0.0 39.85
2020-02-28 04:00 27.55 61.41 16.01 22.08 27.55 4.74 5.28 4.23 97.4 103.5 0.0 0.0 39.81
2020-02-28 04:05 26.71 63.86 16.11 22.84 26.71 3.31 4.92 3.76 75.6 83.2 0.0 0.0 39.78
2020-02-28 04:10 26.46 62.64 15.43 21.83 26.46 3.85 4.38 3.56 101.7 89.6 0.0 0.0 39.7
2020-02-28 04:15 26.76 61.24 15.2 22.9 26.76 3.31 4.74 3.6 123.1 115.0 0.0 0.0 39.67
2020-02-28 04:20 27.32 61.01 15.64 20.78 27.32 5.82 6.0 4.63 69.2 94.5 0.0 0.0 39.6
2020-02-28 04:25 27.63 58.87 15.11 21.15 27.63 5.82 7.96 6.71 73.7 53.9 0.0 0.0 39.56
2020-02-28 04:30 27.57 60.67 15.75 23.34 27.57 3.67 5.82 4.36 128.0 92.7 0.0 0.0 39.51
2020-02-28 04:35 28.54 57.92 15.6 23.43 28.54 4.56 6.0 4.81 128.1 129.6 0.0 0.0 39.45
2020-02-28 04:40 28.67 58.17 15.82 23.39 28.67 4.74 5.28 4.21 74.6 97.2 0.0 0.0 39.42
2020-02-28 04:45 28.13 59.25 15.73 22.94 28.13 4.56 4.92 4.41 62.9 73.2 0.0 0.0 39.36
2020-02-28 04:50 29.17 57.18 15.9 24.96 29.17 3.85 4.74 4.3 93.1 83.6 0.0 0.0 39.29
2020-02-28 04:55 28.0 60.61 16.14 22.61 28.0 4.74 5.46 4.07 100.7 104.3 0.0 0.0 39.25
2020-02-28 05:00 28.49 59.9 16.32 23.0 28.49 4.92 6.0 4.74 128.4 115.5 0.0 0.0 39.18
2020-02-28 05:05 29.3 59.49 16.93 25.55 29.3 3.49 6.17 4.85 111.4 120.3 0.0 0.0 39.15
2020-02-28 05:10 28.92 59.18 16.45 24.06 28.92 4.38 5.28 3.91 138.7 119.4 0.0 0.0 39.09
2020-02-28 05:15 28.62 59.63 16.34 24.77 28.62 3.49 4.92 4.23 114.7 120.2 0.0 0.0 39.06
2020-02-28 05:20 28.31 59.76 16.1 23.15 28.31 4.56 4.74 3.91 116.8 121.2 0.0 0.0 39.0
2020-02-28 05:25 28.67 58.27 15.86 24.83 28.67 3.49 4.56 4.0 114.3 125.6 0.0 0.0 38.95
2020-02-28 05:30 28.8 58.61 16.11 24.98 28.8 3.49 4.03 3.49 120.5 116.1 0.0 0.0 38.91
2020-02-28 05:35 28.62 58.98 16.09 25.01 28.62 3.31 4.03 3.36 138.2 129.6 0.0 0.0 38.84
2020-02-28 05:40 27.88 59.97 15.77 23.04 27.88 4.21 4.74 3.65 163.4 156.2 0.0 0.0 38.8
2020-02-28 05:45 27.09 60.04 15.05 22.56 27.09 3.85 4.74 4.14 165.2 168.2 0.0 0.0 38.73
2020-02-28 05:50 26.42 61.73 15.06 22.77 26.42 3.13 3.67 2.95 162.1 162.1 0.0 0.0 38.7
2020-02-28 05:55 26.35 62.07 15.11 22.18 26.35 3.49 3.85 3.31 174.3 173.9 0.0 0.0 38.68
2020-02-28 06:00 26.78 60.72 15.02 26.78 26.78 1.34 3.49 2.39 195.4 185.2 0.0 0.0 38.61
2020-02-28 06:05 26.17 61.23 14.63 26.17 26.17 1.88 2.24 1.74 204.2 202.5 0.0 0.0 38.57
2020-02-28 06:10 25.14 62.76 14.22 25.14 25.14 1.16 2.24 1.59 258.6 231.4 0.0 0.0 38.52
2020-02-28 06:15 24.53 65.14 14.49 24.53 24.53 0.0 1.52 0.51 160.9 209.3 0.0 0.0 38.46
2020-02-28 06:20 24.46 66.5 14.9 24.46 24.46 0.0 1.34 0.22 196.1 174.0 0.0 0.001 38.41
2020-02-28 06:25 25.07 65.58 15.16 25.07 25.07 0.0 0.0 0.0 271.7 0.0 0.0 0.001 38.35
2020-02-28 06:30 26.42 62.18 15.22 26.42 26.42 0.0 0.98 0.25 238.5 248.6 0.0 0.003 38.32
2020-02-28 06:35 26.98 60.58 15.15 26.98 26.98 2.06 2.06 0.87 254.9 245.0 0.0 0.004 38.25
2020-02-28 06:40 27.16 60.28 15.21 27.16 27.16 2.42 2.77 2.42 240.4 249.1 0.0 0.007 38.21
2020-02-28 06:45 27.39 59.53 15.14 27.39 27.39 1.88 2.42 1.9 256.7 249.3 0.0 0.011 38.16
2020-02-28 06:50 28.08 58.92 15.55 28.08 28.08 2.06 2.06 1.77 255.3 248.8 0.0 0.015 38.1
2020-02-28 06:55 29.12 56.3 15.49 29.12 29.12 2.42 2.59 1.81 242.8 256.9 0.0 0.02 38.07
2020-02-28 07:00 29.84 56.57 16.28 29.84 29.84 1.7 2.24 1.63 261.8 261.9 0.0 0.026 37.99
2020-02-28 07:05 30.65 59.87 18.35 30.65 30.65 1.34 2.59 1.88 249.6 252.5 0.0 0.032 37.96
2020-02-28 07:10 32.11 55.66 18.03 32.11 32.11 2.06 3.13 2.46 220.0 223.0 0.0 0.038 37.9
2020-02-28 07:15 33.76 50.36 17.25 29.87 33.76 4.21 6.71 3.65 176.4 200.5 0.0 0.043 37.85
2020-02-28 07:20 35.35 49.54 18.33 32.47 35.35 3.49 5.1 3.65 200.7 196.3 0.0 0.048 37.83
2020-02-28 07:25 36.14 46.51 17.59 33.38 36.14 3.49 3.85 2.98 227.2 215.1 0.0 0.052 37.8
2020-02-28 07:30 36.81 45.38 17.63 32.91 36.81 4.74 4.92 3.62 199.2 209.9 0.0 0.057 37.76
2020-02-28 07:35 37.22 46.27 18.46 34.42 37.22 3.67 5.28 4.14 222.7 213.2 0.0 0.062 37.74
2020-02-28 07:40 37.53 45.75 18.48 34.41 37.53 4.03 4.74 3.91 241.9 215.8 0.0 0.067 37.72
2020-02-28 07:45 37.83 45.04 18.39 32.91 37.83 6.35 6.89 4.88 180.4 201.3 0.0 0.072 37.71
2020-02-28 07:50 37.83 46.37 19.07 31.85 37.83 8.12 9.22 7.36 174.9 176.1 0.0 0.077 37.71
2020-02-28 07:55 38.32 43.51 18.03 31.57 38.32 9.91 10.8 8.86 169.5 177.5 0.0 0.082 37.69
2020-02-28 08:00 39.18 44.9 19.56 34.19 39.18 6.89 10.09 7.43 186.1 180.3 0.0 0.087 37.69
2020-02-28 08:05 39.85 42.53 18.89 35.8 39.85 5.64 8.48 6.11 196.0 183.5 0.0 0.083 37.72
2020-02-28 08:10 39.6 42.25 18.51 34.58 39.6 7.07 8.86 6.17 182.8 191.9 0.0 0.047 37.76
2020-02-28 08:15 40.21 43.44 19.72 34.3 40.21 9.04 11.16 8.05 189.3 179.2 0.0 0.102 37.78
2020-02-28 08:20 40.33 43.92 20.09 34.46 40.33 9.04 10.63 8.63 168.0 183.9 0.0 0.107 37.81
2020-02-28 08:25 41.07 42.11 19.77 35.06 41.07 9.73 11.16 9.04 189.1 188.0 0.0 0.111 37.87
2020-02-28 08:30 40.75 43.0 19.97 35.41 40.75 8.12 10.63 8.05 177.5 188.2 0.0 0.074 37.9
2020-02-28 08:35 40.87 43.57 20.39 35.2 40.87 8.86 10.8 9.06 177.8 187.6 0.0 0.121 37.98
2020-02-28 08:40 41.72 43.3 21.02 36.16 41.72 9.04 11.52 9.44 179.2 182.5 0.0 0.125 38.03
2020-02-28 08:45 42.71 39.66 19.85 37.08 42.71 9.73 12.59 9.95 175.7 182.8 0.0 0.13 38.1
2020-02-28 08:50 42.94 38.44 19.32 37.83 42.94 8.68 11.34 9.89 167.4 185.8 0.0 0.134 38.17
2020-02-28 08:55 43.79 36.77 19.04 38.07 43.79 10.63 12.42 10.02 174.3 178.5 0.0 0.139 38.25
2020-02-28 09:00 43.86 37.15 19.35 38.23 43.86 10.45 12.77 11.01 199.4 188.8 0.0 0.144 38.35
2020-02-28 09:05 44.4 37.01 19.74 40.02 44.4 7.78 13.31 10.09 171.9 184.2 0.0 0.148 38.44
2020-02-28 09:10 45.01 34.13 18.39 41.03 45.01 7.25 10.8 8.95 172.1 182.4 0.0 0.152 38.55
2020-02-28 09:15 45.5 34.6 19.14 40.67 45.5 9.4 12.24 9.48 169.7 179.5 0.0 0.156 38.66
2020-02-28 09:20 45.45 33.82 18.56 39.89 45.45 11.34 12.24 10.16 212.6 190.8 0.0 0.16 38.75
2020-02-28 09:25 45.86 34.29 19.25 41.4 45.86 8.68 12.42 9.13 190.3 190.8 0.0 0.164 38.86
2020-02-28 09:30 45.81 34.83 19.57 40.97 45.81 9.57 12.24 10.16 210.3 191.0 0.0 0.165 38.98
2020-02-28 09:35 47.64 30.96 18.43 43.67 47.64 8.48 11.7 8.97 184.8 204.8 0.0 0.172 39.11
2020-02-28 09:40 47.34 32.83 19.54 43.59 47.34 7.78 11.16 9.42 202.0 191.6 0.0 0.175 39.24
2020-02-28 09:45 47.75 33.1 20.09 43.13 47.75 10.27 13.31 9.4 178.8 192.4 0.0 0.179 39.38
2020-02-28 09:50 48.06 31.2 18.98 44.54 48.06 7.61 12.24 9.46 217.4 199.5 0.0 0.183 39.52
2020-02-28 09:55 48.36 31.23 19.27 45.42 48.36 6.53 9.91 7.25 221.9 209.5 0.0 0.186 39.61
2020-02-28 10:00 48.0 32.15 19.63 45.08 48.0 6.35 9.73 7.49 192.3 205.9 0.0 0.189 39.74
2020-02-28 10:05 49.1 29.98 18.96 46.87 49.1 5.46 10.63 6.76 233.7 199.1 0.0 0.192 39.87
2020-02-28 10:10 49.15 29.03 18.25 45.66 49.15 8.12 8.3 6.58 194.5 201.1 0.0 0.196 40.01
2020-02-28 10:15 50.2 28.69 18.88 50.2 50.2 4.74 8.68 7.07 229.3 216.0 0.0 0.199 40.12
2020-02-28 10:20 51.73 26.35 18.22 51.73 51.73 8.68 9.04 6.2 252.0 217.1 0.0 0.202 40.24
2020-02-28 10:25 51.06 28.01 19.07 51.06 51.06 4.74 10.45 6.76 200.6 201.1 0.0 0.204 40.41
2020-02-28 10:30 51.96 24.31 16.55 51.96 51.96 8.68 9.04 6.46 233.5 219.3 0.0 0.207 40.57
2020-02-28 10:35 52.21 26.58 18.84 52.21 52.21 4.03 8.86 4.61 211.8 239.7 0.0 0.209 40.73
2020-02-28 10:40 52.83 25.36 18.27 52.83 52.83 4.56 9.04 5.88 251.5 215.6 0.0 0.212 40.89
2020-02-28 10:45 52.83 25.39 18.3 52.83 52.83 2.77 6.89 4.47 223.3 233.8 0.0 0.213 41.09
2020-02-28 10:50 53.69 24.61 18.31 53.69 53.69 6.71 8.12 4.76 224.4 198.5 0.0 0.216 41.27
2020-02-28 10:55 54.3 22.2 16.44 54.3 54.3 5.1 6.53 4.18 251.6 262.1 0.0 0.218 41.5
2020-02-28 11:00 54.48 21.66 16.02 54.48 54.48 3.31 6.0 4.34 15.9 252.9 0.0 0.219 41.68
2020-02-28 11:05 54.9 21.08 15.74 54.9 54.9 2.06 8.86 5.73 267.1 232.4 0.0 0.223 41.92
2020-02-28 11:10 55.33 20.68 15.66 55.33 55.33 7.25 7.43 3.62 228.0 246.1 0.0 0.225 42.13
2020-02-28 11:15 55.89 21.42 16.94 55.89 55.89 2.59 8.86 5.06 329.0 248.9 0.0 0.227 42.37
2020-02-28 11:20 55.81 21.76 17.25 55.81 55.81 3.85 6.89 4.14 22.4 322.4 0.0 0.229 42.6
2020-02-28 11:25 56.32 21.25 17.12 56.32 56.32 5.82 6.35 4.03 233.9 15.5 0.0 0.225 42.84
2020-02-28 11:30 56.8 19.79 15.88 56.8 56.8 3.13 6.35 3.65 184.4 283.0 0.0 0.23 43.07
2020-02-28 11:35 57.96 19.62 16.64 57.96 57.96 3.49 5.46 3.06 234.9 237.4 0.0 0.228 43.32
2020-02-28 11:40 58.32 18.5 15.58 58.32 58.32 6.0 6.0 3.38 0.0 350.8 0.0 0.227 43.54
2020-02-28 11:45 57.83 16.8 12.98 57.83 57.83 4.92 6.89 4.92 11.6 3.3 0.0 0.226 43.77
2020-02-28 11:50 57.88 16.43 12.52 57.88 57.88 2.59 4.92 3.44 132.4 66.4 0.0 0.236 44.01
2020-02-28 11:55 58.62 16.94 13.81 58.62 58.62 4.03 5.1 3.24 74.2 48.0 0.0 0.235 44.2
2020-02-28 12:00 59.11 16.84 14.08 59.11 59.11 2.42 4.56 2.28 340.0 48.8 0.0 0.238 44.44

Data is courtesy of the NM Climate Center. DO NOT USE IN LEGAL PROCEEDINGS.